Time;durP1;ratioP1;P1;durP2;ratioP2;P2;SDS_P1;SDS_P2;PMS_P1;PMS_P2;Temp;Humidity;BMP_temperature;BMP_pressure;BME280_temperature;BME280_humidity;BME280_pressure;Samples;Min_cycle;Max_cycle;Signal;HPM_P1;HPM_P2
2023/03/08 00:00:53;;;;;;;10.07;5.80;;;9.70;43.60;;;;;;5076457;28;20450;-87
2023/03/08 00:03:20;;;;;;;10.70;6.30;;;9.70;43.40;;;;;;5103729;27;20470;-86
2023/03/08 00:05:47;;;;;;;9.33;5.80;;;9.80;43.10;;;;;;5089061;27;20768;-85
2023/03/08 00:08:16;;;;;;;12.60;5.10;;;9.70;43.10;;;;;;5072009;28;20447;-84
2023/03/08 00:10:43;;;;;;;11.10;6.40;;;9.70;43.40;;;;;;5100309;28;20858;-85
2023/03/08 00:13:10;;;;;;;14.33;6.63;;;9.70;43.30;;;;;;5065482;28;20468;-87
2023/03/08 00:15:37;;;;;;;9.93;5.77;;;9.70;43.30;;;;;;5092493;28;20455;-86
2023/03/08 00:18:04;;;;;;;12.77;6.63;;;9.80;43.20;;;;;;5072725;28;20545;-85
2023/03/08 00:20:31;;;;;;;9.50;5.57;;;9.60;43.30;;;;;;5074868;28;20451;-85
2023/03/08 00:22:58;;;;;;;11.47;6.87;;;9.60;43.10;;;;;;5084790;28;21001;-85
2023/03/08 00:25:26;;;;;;;11.10;6.17;;;9.80;43.30;;;;;;5075970;28;20441;-86
2023/03/08 00:27:53;;;;;;;8.87;5.73;;;9.70;43.20;;;;;;5092909;28;20454;-88
2023/03/08 00:30:20;;;;;;;9.43;5.70;;;9.70;43.20;;;;;;5088377;28;20455;-88
2023/03/08 00:32:47;;;;;;;10.00;5.70;;;9.70;43.20;;;;;;5074521;28;20469;-87
2023/03/08 00:35:14;;;;;;;9.40;5.40;;;9.50;43.20;;;;;;5076233;28;20465;-88
2023/03/08 00:37:41;;;;;;;10.20;5.30;;;9.50;43.30;;;;;;5073086;28;20527;-86
2023/03/08 00:40:09;;;;;;;11.47;5.67;;;9.60;43.50;;;;;;5089934;28;20961;-85
2023/03/08 00:42:38;;;;;;;11.50;6.63;;;9.70;43.10;;;;;;5093755;28;20477;-86
2023/03/08 00:45:06;;;;;;;9.70;5.13;;;9.50;43.10;;;;;;5089496;28;20451;-85
2023/03/08 00:47:34;;;;;;;8.60;4.47;;;9.30;43.20;;;;;;5091922;28;20934;-85
2023/03/08 00:50:01;;;;;;;9.97;6.47;;;9.20;43.80;;;;;;5091568;28;20938;-86
2023/03/08 00:52:28;;;;;;;7.47;5.10;;;9.10;43.90;;;;;;5082632;28;20496;-88
2023/03/08 00:54:55;;;;;;;11.60;7.13;;;9.10;43.80;;;;;;5072168;28;20962;-86
2023/03/08 00:57:22;;;;;;;9.20;5.20;;;9.30;43.90;;;;;;5088844;28;20479;-85
2023/03/08 00:59:50;;;;;;;9.40;4.80;;;9.60;43.80;;;;;;5090680;28;20473;-88
2023/03/08 01:02:17;;;;;;;13.00;5.50;;;9.50;43.30;;;;;;5070965;28;20475;-86
2023/03/08 01:04:44;;;;;;;8.47;5.33;;;9.40;43.70;;;;;;5090673;28;20442;-88
2023/03/08 01:07:11;;;;;;;9.03;6.20;;;9.60;43.50;;;;;;5090160;28;20445;-86
2023/03/08 01:09:38;;;;;;;15.10;5.40;;;9.60;43.20;;;;;;5073810;28;20459;-85
2023/03/08 01:12:06;;;;;;;8.60;5.33;;;9.60;43.10;;;;;;5071650;28;20509;-86
2023/03/08 01:14:33;;;;;;;9.10;5.20;;;9.60;43.10;;;;;;5075993;27;20913;-85
2023/03/08 01:17:01;;;;;;;10.90;5.43;;;9.60;43.20;;;;;;5071704;27;20460;-85
2023/03/08 01:19:28;;;;;;;11.93;5.60;;;9.60;43.10;;;;;;5075411;27;20447;-86
2023/03/08 01:21:55;;;;;;;7.77;5.43;;;9.60;43.10;;;;;;5082145;27;20951;-85
2023/03/08 01:24:22;;;;;;;8.00;5.60;;;9.70;42.80;;;;;;5094877;27;20447;-86
2023/03/08 01:26:49;;;;;;;6.43;5.03;;;9.70;42.60;;;;;;5095001;27;20449;-85
2023/03/08 01:29:18;;;;;;;9.83;5.10;;;9.60;43.10;;;;;;5101510;27;20511;-87
2023/03/08 01:31:45;;;;;;;10.93;5.57;;;9.70;42.90;;;;;;5077293;27;20457;-85
2023/03/08 01:34:13;;;;;;;7.83;5.47;;;9.70;43.20;;;;;;5060573;27;20477;-85
2023/03/08 01:36:40;;;;;;;10.73;5.80;;;9.50;43.30;;;;;;5084968;27;20587;-83
2023/03/08 01:39:07;;;;;;;7.37;4.63;;;9.60;43.10;;;;;;5061976;27;20477;-83
2023/03/08 01:41:34;;;;;;;11.73;5.90;;;9.50;42.90;;;;;;5111178;27;20802;-83
2023/03/08 01:44:01;;;;;;;8.00;4.97;;;9.50;43.00;;;;;;5092964;27;21031;-83
2023/03/08 01:46:30;;;;;;;9.47;5.27;;;9.50;43.40;;;;;;5091467;27;20441;-84
2023/03/08 01:49:07;;;;;;;10.83;5.93;;;9.60;43.30;;;;;;5084631;27;20493;-83
2023/03/08 01:51:42;;;;;;;12.07;4.30;;;9.80;43.20;;;;;;5086696;27;20450;-83
2023/03/08 01:54:13;;;;;;;8.97;5.63;;;9.70;42.70;;;;;;5059346;27;20466;-88
2023/03/08 01:56:42;;;;;;;9.00;5.70;;;9.50;42.80;;;;;;5086315;27;20798;-87
2023/03/08 01:59:10;;;;;;;11.77;5.67;;;9.60;42.80;;;;;;5061313;27;20473;-87
2023/03/08 02:01:38;;;;;;;8.03;4.90;;;9.70;42.60;;;;;;5093249;27;21012;-88
2023/03/08 02:04:06;;;;;;;12.73;5.60;;;9.60;42.70;;;;;;5093547;27;20442;-84
2023/03/08 02:06:35;;;;;;;15.10;7.07;;;9.50;42.90;;;;;;5080458;27;20452;-85
2023/03/08 02:09:04;;;;;;;11.93;6.30;;;9.70;42.90;;;;;;5078649;27;20464;-83
2023/03/08 02:11:33;;;;;;;10.33;7.23;;;9.80;42.30;;;;;;5067377;27;20634;-85
2023/03/08 02:14:01;;;;;;;11.40;5.90;;;9.70;42.40;;;;;;5065496;27;20474;-86
2023/03/08 02:16:28;;;;;;;8.93;4.57;;;9.60;42.60;;;;;;5062686;27;20446;-85
2023/03/08 02:18:57;;;;;;;8.73;5.00;;;9.40;42.90;;;;;;5102667;27;20951;-86
2023/03/08 02:21:25;;;;;;;10.07;5.77;;;9.50;43.00;;;;;;5067872;27;20442;-86
2023/03/08 02:23:54;;;;;;;10.43;4.97;;;9.70;42.80;;;;;;5058962;27;21049;-85
2023/03/08 02:26:22;;;;;;;11.30;5.43;;;9.80;42.60;;;;;;5074889;27;20442;-87
2023/03/08 02:28:49;;;;;;;7.40;5.30;;;9.80;42.60;;;;;;5100712;27;20447;-87
2023/03/08 02:31:16;;;;;;;8.73;5.30;;;9.70;42.40;;;;;;5067832;27;20833;-87
2023/03/08 02:33:44;;;;;;;10.53;5.60;;;9.70;42.30;;;;;;5074920;27;21018;-85
2023/03/08 02:36:11;;;;;;;13.80;6.23;;;9.50;42.60;;;;;;5088182;27;20443;-85
2023/03/08 02:38:38;;;;;;;10.57;5.57;;;9.50;42.80;;;;;;5086718;27;20446;-86
2023/03/08 02:41:07;;;;;;;12.37;6.27;;;9.50;42.90;;;;;;5078567;27;20495;-85
2023/03/08 02:43:34;;;;;;;8.60;6.40;;;9.40;42.60;;;;;;5091863;28;20466;-85
2023/03/08 02:46:01;;;;;;;8.50;5.40;;;9.50;42.90;;;;;;5085668;27;20477;-87
2023/03/08 02:48:28;;;;;;;11.90;5.90;;;9.60;42.80;;;;;;5074953;27;20453;-85
2023/03/08 02:50:55;;;;;;;9.80;6.10;;;9.50;42.50;;;;;;5095287;27;20450;-86
2023/03/08 02:53:22;;;;;;;10.10;5.30;;;9.50;42.90;;;;;;5072786;27;20478;-86
2023/03/08 02:55:48;;;;;;;11.17;6.50;;;9.60;42.50;;;;;;5074408;28;20446;-88
2023/03/08 02:58:17;;;;;;;11.13;5.17;;;9.60;42.60;;;;;;5100301;27;20447;-86
2023/03/08 03:00:44;;;;;;;11.30;6.00;;;9.50;42.50;;;;;;5085917;27;20459;-86
2023/03/08 03:03:11;;;;;;;8.93;5.93;;;9.40;43.00;;;;;;5063663;27;20557;-88
2023/03/08 03:05:42;;;;;;;8.63;5.73;;;9.50;42.90;;;;;;5074102;27;20443;-86
2023/03/08 03:08:12;;;;;;;10.60;6.53;;;9.60;42.50;;;;;;5063965;27;20440;-87
2023/03/08 03:10:40;;;;;;;9.27;5.67;;;9.60;42.20;;;;;;5079800;27;20453;-88
2023/03/08 03:13:07;;;;;;;12.77;6.70;;;9.70;42.50;;;;;;5077780;27;21148;-85
2023/03/08 03:15:38;;;;;;;8.17;5.97;;;9.70;42.10;;;;;;5075802;27;20453;-85
2023/03/08 03:18:05;;;;;;;8.97;5.87;;;9.40;42.20;;;;;;5094060;27;20450;-85
2023/03/08 03:20:33;;;;;;;9.23;4.80;;;9.40;42.90;;;;;;5111073;27;20519;-88
2023/03/08 03:23:00;;;;;;;13.13;6.27;;;9.70;42.70;;;;;;5075110;27;20467;-86
2023/03/08 03:25:37;;;;;;;10.77;6.47;;;9.80;42.10;;;;;;5084822;27;20502;-87
2023/03/08 03:28:05;;;;;;;10.97;4.93;;;9.80;42.10;;;;;;5083109;28;20541;-84
2023/03/08 03:30:35;;;;;;;8.40;4.70;;;10.10;41.40;;;;;;5083611;27;20549;-88
2023/03/08 03:33:03;;;;;;;8.60;6.07;;;10.10;40.90;;;;;;5081389;27;20983;-86
2023/03/08 03:35:32;;;;;;;9.80;5.63;;;10.20;41.00;;;;;;5069382;27;20840;-85
2023/03/08 03:37:59;;;;;;;9.20;5.57;;;10.30;41.20;;;;;;5083821;28;20857;-85
2023/03/08 03:40:26;;;;;;;9.90;5.63;;;10.00;40.60;;;;;;5080925;28;20450;-85
2023/03/08 03:42:59;;;;;;;9.20;5.33;;;10.20;41.00;;;;;;5079055;27;20463;-88
2023/03/08 03:45:26;;;;;;;7.57;5.07;;;10.20;40.80;;;;;;5058237;27;20967;-87
2023/03/08 03:47:55;;;;;;;8.80;5.50;;;10.30;40.90;;;;;;5068409;27;20511;-87
2023/03/08 03:50:22;;;;;;;14.00;6.50;;;10.40;40.40;;;;;;5079567;27;20443;-85
2023/03/08 03:53:00;;;;;;;12.10;5.77;;;10.40;40.00;;;;;;5068454;28;20466;-86
2023/03/08 03:55:28;;;;;;;10.23;5.93;;;10.40;40.20;;;;;;5074714;28;20446;-86
2023/03/08 03:57:55;;;;;;;8.17;5.30;;;10.40;40.40;;;;;;5074639;27;20466;-87
2023/03/08 04:00:23;;;;;;;10.87;6.13;;;10.40;39.90;;;;;;5074619;27;20454;-85
2023/03/08 04:03:03;;;;;;;14.20;6.20;;;10.10;39.90;;;;;;5075195;28;20469;-84
2023/03/08 04:05:30;;;;;;;10.63;5.30;;;9.90;41.60;;;;;;5066539;28;20967;-85
2023/03/08 04:07:57;;;;;;;10.40;5.90;;;9.80;42.10;;;;;;5073035;28;20447;-86
2023/03/08 04:10:28;;;;;;;10.40;6.00;;;9.70;41.60;;;;;;5070570;28;20453;-88
2023/03/08 04:12:56;;;;;;;13.63;6.50;;;9.80;42.40;;;;;;5073735;28;20495;-89
2023/03/08 04:15:23;;;;;;;10.43;6.97;;;9.60;42.50;;;;;;5075597;28;20454;-87
2023/03/08 04:17:51;;;;;;;12.90;7.57;;;9.70;42.00;;;;;;5082696;28;20548;-85
2023/03/08 04:20:22;;;;;;;11.60;6.10;;;9.80;41.80;;;;;;5072474;28;20533;-87
2023/03/08 04:22:55;;;;;;;11.87;6.80;;;9.90;41.90;;;;;;5066539;28;20474;-87
2023/03/08 04:25:28;;;;;;;12.90;6.87;;;9.80;41.30;;;;;;5061004;28;20935;-86
2023/03/08 04:27:59;;;;;;;12.27;6.80;;;9.60;41.50;;;;;;5076318;28;20520;-85
2023/03/08 04:30:26;;;;;;;10.20;5.10;;;9.70;41.70;;;;;;5063680;28;20446;-86
2023/03/08 04:32:54;;;;;;;13.33;7.70;;;9.60;41.50;;;;;;5082716;28;20467;-86
2023/03/08 04:35:27;;;;;;;14.17;6.67;;;9.70;41.60;;;;;;5057393;28;21286;-87
2023/03/08 04:37:54;;;;;;;9.60;6.07;;;9.50;41.40;;;;;;5094725;28;20447;-85
2023/03/08 04:40:24;;;;;;;11.37;6.30;;;9.70;41.60;;;;;;5063764;28;20492;-85
2023/03/08 04:42:58;;;;;;;15.80;8.20;;;9.80;41.60;;;;;;5090315;28;20559;-85
2023/03/08 04:45:34;;;;;;;10.67;7.00;;;9.90;41.20;;;;;;5082314;28;21022;-85
2023/03/08 04:48:05;;;;;;;7.67;5.90;;;10.00;40.60;;;;;;5074300;27;20473;-86
2023/03/08 04:50:34;;;;;;;11.10;6.90;;;9.60;41.60;;;;;;5096687;27;20449;-85
2023/03/08 04:53:02;;;;;;;10.43;6.40;;;9.10;42.30;;;;;;5080681;27;20473;-86
2023/03/08 04:55:29;;;;;;;10.23;5.57;;;9.10;42.40;;;;;;5067610;27;20445;-85
2023/03/08 04:57:56;;;;;;;9.00;5.57;;;9.20;42.20;;;;;;5076486;27;20450;-86
2023/03/08 05:00:23;;;;;;;10.93;5.87;;;9.10;42.40;;;;;;5079606;27;20452;-87
2023/03/08 05:02:51;;;;;;;10.80;6.67;;;8.90;42.90;;;;;;5078549;27;20485;-86
2023/03/08 05:05:19;;;;;;;12.93;6.60;;;9.10;42.40;;;;;;5084558;27;20564;-85
2023/03/08 05:07:47;;;;;;;13.10;6.63;;;8.90;42.40;;;;;;5062839;27;20457;-85
2023/03/08 05:10:14;;;;;;;10.33;5.53;;;8.80;43.30;;;;;;5092824;27;20443;-88
2023/03/08 05:12:41;;;;;;;12.70;6.53;;;8.50;43.60;;;;;;5094103;27;20477;-85
2023/03/08 05:15:10;;;;;;;10.40;6.27;;;8.40;43.90;;;;;;5068756;27;20474;-85
2023/03/08 05:17:37;;;;;;;13.33;6.53;;;8.60;43.50;;;;;;5080811;27;20487;-85
2023/03/08 05:20:05;;;;;;;13.90;6.47;;;8.70;43.80;;;;;;5111676;27;20537;-85
2023/03/08 05:22:36;;;;;;;10.63;6.30;;;8.70;43.10;;;;;;5109575;27;20454;-87
2023/03/08 05:25:06;;;;;;;10.77;6.97;;;8.90;42.80;;;;;;5085980;28;20925;-86
2023/03/08 05:27:33;;;;;;;11.07;6.87;;;9.10;42.30;;;;;;5086981;27;20827;-86
2023/03/08 05:30:01;;;;;;;13.27;8.77;;;9.00;42.90;;;;;;5064911;27;21044;-87
2023/03/08 05:32:31;;;;;;;22.67;12.40;;;9.10;43.00;;;;;;5069197;27;20478;-88
2023/03/08 05:34:58;;;;;;;40.10;21.17;;;9.00;42.50;;;;;;5074446;27;20505;-86
2023/03/08 05:37:32;;;;;;;21.90;11.40;;;9.10;42.90;;;;;;5077021;27;20450;-84
2023/03/08 05:40:04;;;;;;;14.53;7.13;;;9.10;42.30;;;;;;5076130;27;20450;-86
2023/03/08 05:42:34;;;;;;;12.23;8.20;;;8.90;42.80;;;;;;5082931;27;20462;-85
2023/03/08 05:45:01;;;;;;;9.90;6.20;;;8.90;43.40;;;;;;5076318;27;20520;-87
2023/03/08 05:47:33;;;;;;;10.80;6.50;;;8.80;43.20;;;;;;5091804;27;20979;-88
2023/03/08 05:50:00;;;;;;;18.60;8.07;;;8.90;43.00;;;;;;5069509;27;20904;-85
2023/03/08 05:52:30;;;;;;;9.63;6.93;;;8.70;43.70;;;;;;5059084;27;20848;-85
2023/03/08 05:54:58;;;;;;;11.87;7.50;;;8.60;43.20;;;;;;5076452;27;20489;-86
2023/03/08 05:57:25;;;;;;;19.47;11.40;;;8.60;43.60;;;;;;5095172;27;20454;-86
2023/03/08 05:59:53;;;;;;;10.70;6.47;;;8.60;43.90;;;;;;5093376;27;20457;-88
2023/03/08 06:02:22;;;;;;;16.27;7.50;;;8.80;43.30;;;;;;5073110;27;20473;-86
2023/03/08 06:04:53;;;;;;;12.70;7.77;;;8.80;43.60;;;;;;5069628;27;20446;-87
2023/03/08 06:07:22;;;;;;;16.87;7.80;;;9.00;43.30;;;;;;5056839;27;20994;-87
2023/03/08 06:09:55;;;;;;;10.87;7.10;;;8.90;43.10;;;;;;5086055;27;20447;-85
2023/03/08 06:12:23;;;;;;;14.53;7.40;;;9.00;43.00;;;;;;5070032;27;20516;-87
2023/03/08 06:14:55;;;;;;;13.33;7.27;;;9.20;42.90;;;;;;5082454;27;20479;-85
2023/03/08 06:17:25;;;;;;;13.27;7.00;;;9.30;43.00;;;;;;5065693;27;20442;-88
2023/03/08 06:19:53;;;;;;;12.37;6.47;;;9.40;42.70;;;;;;5100853;27;20453;-86
2023/03/08 06:22:21;;;;;;;14.77;6.53;;;9.40;42.70;;;;;;5071649;27;20475;-86
2023/03/08 06:24:48;;;;;;;13.03;7.77;;;9.50;42.30;;;;;;5056997;27;20576;-87
2023/03/08 06:27:19;;;;;;;14.20;7.30;;;9.50;42.00;;;;;;5074702;27;20492;-88
2023/03/08 06:29:49;;;;;;;14.73;7.27;;;9.40;42.70;;;;;;5082429;27;20512;-88
2023/03/08 06:32:17;;;;;;;9.50;6.57;;;9.40;42.50;;;;;;5081973;27;20726;-86
2023/03/08 06:34:46;;;;;;;15.53;7.70;;;9.50;42.50;;;;;;5091401;27;20485;-88
2023/03/08 06:37:13;;;;;;;10.53;6.50;;;9.50;42.60;;;;;;5071967;27;20451;-88
2023/03/08 06:39:40;;;;;;;10.73;6.03;;;9.10;43.60;;;;;;5082548;27;21089;-85
2023/03/08 06:42:07;;;;;;;10.63;6.40;;;8.70;44.50;;;;;;5066253;27;20868;-89
2023/03/08 06:44:35;;;;;;;10.20;5.63;;;8.60;45.30;;;;;;5082938;27;20451;-88
2023/03/08 06:47:02;;;;;;;12.77;6.60;;;8.70;45.50;;;;;;5092020;27;20450;-86
2023/03/08 06:49:30;;;;;;;12.33;6.40;;;8.80;45.30;;;;;;5080062;27;20461;-86
2023/03/08 06:51:57;;;;;;;10.70;7.00;;;9.00;45.40;;;;;;5088856;28;20462;-87
2023/03/08 06:54:24;;;;;;;10.67;6.33;;;8.70;46.40;;;;;;5083925;27;20481;-88
2023/03/08 06:56:51;;;;;;;14.70;7.73;;;8.70;47.70;;;;;;5048727;27;20466;-87
2023/03/08 06:59:18;;;;;;;15.37;7.40;;;8.80;48.00;;;;;;5088906;27;20779;-89
2023/03/08 07:01:45;;;;;;;16.97;6.97;;;8.90;48.20;;;;;;5058451;27;20796;-85
2023/03/08 07:04:12;;;;;;;13.43;6.57;;;8.80;48.60;;;;;;5080620;27;20899;-87
2023/03/08 07:06:40;;;;;;;20.00;12.23;;;8.80;49.00;;;;;;5058240;27;20447;-87
2023/03/08 07:09:07;;;;;;;13.23;7.43;;;8.80;49.00;;;;;;5075378;27;20435;-87
2023/03/08 07:11:34;;;;;;;13.93;7.60;;;8.90;49.30;;;;;;5075485;27;20962;-86
2023/03/08 07:14:00;;;;;;;13.20;8.57;;;9.10;49.40;;;;;;5073761;27;20846;-90
2023/03/08 07:16:28;;;;;;;12.80;7.37;;;9.10;48.70;;;;;;5057152;27;20446;-86
2023/03/08 07:18:55;;;;;;;15.00;8.60;;;9.20;48.90;;;;;;5076377;27;20466;-89
2023/03/08 07:21:23;;;;;;;14.10;8.27;;;9.10;49.40;;;;;;5055284;27;20546;-85
2023/03/08 07:23:52;;;;;;;12.30;7.97;;;9.20;49.20;;;;;;5052313;28;20477;-87
2023/03/08 07:26:20;;;;;;;17.10;8.33;;;9.00;49.60;;;;;;5064293;27;20454;-84
2023/03/08 07:28:50;;;;;;;13.70;6.80;;;9.00;49.60;;;;;;5072673;27;20434;-87
2023/03/08 07:31:17;;;;;;;14.03;7.90;;;8.90;49.50;;;;;;5054433;28;20645;-87
2023/03/08 07:33:44;;;;;;;15.57;8.43;;;9.00;49.60;;;;;;5076002;27;20986;-87
2023/03/08 07:36:11;;;;;;;16.00;9.10;;;9.00;49.30;;;;;;5072184;28;20481;-86
2023/03/08 07:38:38;;;;;;;13.23;8.93;;;8.30;49.90;;;;;;5090674;27;20500;-86
2023/03/08 07:41:06;;;;;;;15.60;10.50;;;8.40;50.60;;;;;;5073393;28;20973;-87
2023/03/08 07:43:33;;;;;;;16.87;8.93;;;8.60;50.40;;;;;;5079183;27;20474;-87
2023/03/08 07:46:08;;;;;;;12.83;7.80;;;8.60;50.00;;;;;;5088024;28;20973;-87
2023/03/08 07:48:35;;;;;;;14.23;7.37;;;8.50;50.70;;;;;;5078404;27;20480;-88
2023/03/08 07:51:05;;;;;;;15.53;8.23;;;8.70;51.00;;;;;;5081731;28;20477;-87
2023/03/08 07:53:32;;;;;;;17.83;8.77;;;8.60;51.50;;;;;;5049844;28;20930;-87
2023/03/08 07:55:59;;;;;;;12.90;7.17;;;8.60;52.10;;;;;;5074613;27;20578;-85
2023/03/08 07:58:28;;;;;;;14.57;7.90;;;8.70;52.10;;;;;;5104602;27;21107;-86
2023/03/08 08:00:55;;;;;;;14.10;8.17;;;8.80;52.20;;;;;;5079850;27;20808;-86
2023/03/08 08:03:22;;;;;;;11.63;7.20;;;8.60;52.50;;;;;;5086504;28;20530;-86
2023/03/08 08:05:49;;;;;;;13.40;7.53;;;8.40;53.40;;;;;;5089736;28;20447;-85
2023/03/08 08:08:16;;;;;;;17.57;8.93;;;8.30;53.90;;;;;;5076193;27;20445;-85
2023/03/08 08:10:44;;;;;;;13.17;8.83;;;8.40;54.10;;;;;;5051470;28;20458;-88
2023/03/08 08:13:11;;;;;;;16.30;8.30;;;8.60;54.40;;;;;;5058908;28;21107;-87
2023/03/08 08:15:39;;;;;;;15.10;8.17;;;8.60;54.10;;;;;;5060934;28;20475;-87
2023/03/08 08:18:06;;;;;;;14.50;8.00;;;8.50;54.20;;;;;;5072618;28;20465;-87
2023/03/08 08:20:33;;;;;;;20.07;9.10;;;8.50;54.70;;;;;;5080028;28;20597;-87
2023/03/08 08:23:00;;;;;;;17.63;8.97;;;8.70;54.90;;;;;;5073245;28;20473;-88
2023/03/08 08:25:27;;;;;;;15.87;8.10;;;8.80;54.40;;;;;;5071843;27;20438;-88
2023/03/08 08:27:54;;;;;;;17.43;8.27;;;8.70;54.20;;;;;;5068230;27;20449;-88
2023/03/08 08:30:21;;;;;;;15.13;8.73;;;8.50;55.00;;;;;;5064983;27;20608;-86
2023/03/08 08:32:49;;;;;;;14.63;8.93;;;8.40;55.50;;;;;;5075358;27;20485;-87
2023/03/08 08:35:16;;;;;;;15.63;8.20;;;8.20;55.80;;;;;;5064472;27;20461;-87
2023/03/08 08:37:43;;;;;;;17.20;10.50;;;8.10;56.10;;;;;;5058469;27;20466;-87
2023/03/08 08:40:11;;;;;;;26.57;13.00;;;8.10;56.80;;;;;;5059611;27;20460;-87
2023/03/08 08:42:38;;;;;;;22.50;10.43;;;8.20;57.00;;;;;;5076817;27;20487;-86
2023/03/08 08:45:06;;;;;;;27.33;12.83;;;8.20;56.90;;;;;;5078113;27;20458;-86
2023/03/08 08:47:33;;;;;;;23.47;12.03;;;8.30;56.90;;;;;;5082578;27;20833;-87
2023/03/08 08:50:03;;;;;;;19.03;10.33;;;8.50;56.50;;;;;;5083965;27;20459;-87
2023/03/08 08:52:30;;;;;;;16.77;9.20;;;8.40;56.20;;;;;;5074675;27;20481;-85
2023/03/08 08:54:57;;;;;;;16.93;9.23;;;8.30;56.80;;;;;;5079730;27;20711;-87
2023/03/08 08:57:24;;;;;;;18.13;9.50;;;8.40;57.10;;;;;;5059329;27;20841;-86
2023/03/08 08:59:50;;;;;;;20.00;8.47;;;8.60;56.50;;;;;;5076560;27;20568;-86
2023/03/08 09:02:17;;;;;;;15.67;8.87;;;8.50;56.40;;;;;;5074724;27;20481;-87
2023/03/08 09:04:44;;;;;;;12.83;7.53;;;8.50;56.40;;;;;;5109401;27;20457;-87
2023/03/08 09:07:13;;;;;;;12.13;5.40;;;8.30;56.70;;;;;;5074130;27;20450;-87
2023/03/08 09:09:39;;;;;;;14.10;7.70;;;8.00;56.90;;;;;;5091590;27;20443;-86
2023/03/08 09:12:07;;;;;;;14.40;7.80;;;7.80;57.90;;;;;;5082495;28;20488;-86
2023/03/08 09:14:34;;;;;;;13.30;7.00;;;7.80;58.20;;;;;;5078833;27;20473;-87
2023/03/08 09:17:02;;;;;;;11.73;6.97;;;8.00;57.90;;;;;;5078739;27;20522;-88
2023/03/08 09:19:28;;;;;;;18.57;9.53;;;7.90;58.10;;;;;;5063250;27;20455;-85
2023/03/08 09:21:55;;;;;;;17.33;9.03;;;7.60;58.40;;;;;;5097269;27;20845;-86
2023/03/08 09:24:24;;;;;;;14.90;8.53;;;7.60;58.40;;;;;;5091459;27;20461;-87
2023/03/08 09:26:51;;;;;;;18.23;9.87;;;7.40;59.10;;;;;;5090995;27;20483;-86
2023/03/08 09:29:17;;;;;;;14.43;7.30;;;7.50;59.30;;;;;;5064434;27;20532;-86
2023/03/08 09:31:45;;;;;;;15.83;8.57;;;7.30;59.00;;;;;;5090343;27;20997;-86
2023/03/08 09:34:14;;;;;;;27.33;11.80;;;7.20;61.00;;;;;;5074132;27;20567;-87
2023/03/08 09:36:41;;;;;;;16.97;9.70;;;7.20;59.70;;;;;;5088630;27;20468;-88
2023/03/08 09:39:09;;;;;;;16.57;9.60;;;7.60;60.10;;;;;;5064026;27;20551;-87
2023/03/08 09:41:57;;;;;;;17.90;7.40;;;7.80;59.20;;;;;;5056573;27;20457;-87
2023/03/08 09:44:42;;;;;;;17.70;10.97;;;7.80;58.70;;;;;;5098033;27;20457;-87
2023/03/08 09:47:17;;;;;;;15.13;8.07;;;8.10;58.90;;;;;;5091219;27;20972;-86
2023/03/08 09:49:47;;;;;;;12.00;8.00;;;7.90;58.00;;;;;;5064790;27;20527;-87
2023/03/08 09:52:20;;;;;;;19.43;8.03;;;7.50;58.80;;;;;;5060679;27;20581;-86
2023/03/08 09:54:49;;;;;;;14.97;8.87;;;7.70;59.50;;;;;;5091875;27;20942;-88
2023/03/08 09:57:22;;;;;;;18.20;9.40;;;8.00;59.30;;;;;;5099965;27;20726;-87
2023/03/08 09:59:54;;;;;;;16.10;9.80;;;8.30;59.00;;;;;;5107358;27;21030;-87
2023/03/08 10:02:27;;;;;;;15.00;8.90;;;8.40;58.50;;;;;;5057867;27;20466;-89
2023/03/08 10:05:04;;;;;;;20.43;12.17;;;8.50;57.80;;;;;;5058376;27;20459;-88
2023/03/08 10:07:41;;;;;;;19.17;12.30;;;8.60;57.80;;;;;;5062658;27;20446;-87
2023/03/08 10:10:23;;;;;;;21.73;12.57;;;8.60;57.70;;;;;;5067181;27;20485;-88
2023/03/08 10:13:03;;;;;;;17.37;8.10;;;8.60;58.10;;;;;;5090694;27;20481;-87
2023/03/08 10:15:32;;;;;;;13.43;8.83;;;8.00;58.40;;;;;;5079134;27;21005;-84
2023/03/08 10:18:02;;;;;;;21.23;11.10;;;8.00;59.30;;;;;;5090495;27;20975;-86
2023/03/08 10:20:32;;;;;;;15.73;9.70;;;8.10;59.70;;;;;;5088385;27;20474;-87
2023/03/08 10:23:01;;;;;;;20.23;9.83;;;8.10;59.20;;;;;;5091700;27;20530;-87
2023/03/08 10:25:32;;;;;;;14.13;9.00;;;8.00;59.30;;;;;;5060183;27;20959;-87
2023/03/08 10:28:03;;;;;;;14.83;7.40;;;7.90;60.40;;;;;;5108079;27;20725;-87
2023/03/08 10:30:33;;;;;;;17.67;8.93;;;7.80;59.60;;;;;;5087648;27;20454;-87
2023/03/08 10:33:04;;;;;;;15.07;9.20;;;7.80;60.30;;;;;;5077469;27;20474;-87
2023/03/08 10:35:35;;;;;;;16.47;9.23;;;7.90;60.60;;;;;;5062686;27;20500;-86
2023/03/08 10:38:02;;;;;;;17.73;9.10;;;8.30;59.90;;;;;;5076011;27;20951;-87
2023/03/08 10:40:29;;;;;;;17.67;8.47;;;8.40;59.30;;;;;;5086862;27;20482;-86
2023/03/08 10:42:59;;;;;;;19.67;8.17;;;8.30;58.90;;;;;;5064038;27;21108;-85
2023/03/08 10:45:29;;;;;;;19.87;9.33;;;7.80;60.20;;;;;;5065207;27;20439;-86
2023/03/08 10:47:58;;;;;;;17.03;9.13;;;8.00;61.00;;;;;;5104531;27;20767;-87
2023/03/08 10:50:27;;;;;;;26.00;15.03;;;8.20;60.80;;;;;;5072749;27;21014;-87
2023/03/08 10:52:54;;;;;;;18.50;10.33;;;8.30;59.70;;;;;;5091594;27;20471;-86
2023/03/08 10:55:23;;;;;;;20.40;13.10;;;8.40;59.70;;;;;;5074304;27;21122;-86
2023/03/08 10:57:53;;;;;;;18.90;10.43;;;8.40;59.30;;;;;;5099533;27;20454;-85
2023/03/08 11:00:33;;;;;;;23.57;11.50;;;8.60;59.40;;;;;;5066430;27;21070;-87
2023/03/08 11:03:19;;;;;;;15.90;9.93;;;8.80;59.50;;;;;;5081990;27;20458;-87
2023/03/08 11:05:54;;;;;;;20.57;9.93;;;9.00;58.90;;;;;;5063264;27;20446;-86
2023/03/08 11:08:24;;;;;;;21.17;11.43;;;8.70;59.10;;;;;;5093727;27;20442;-86
2023/03/08 11:11:09;;;;;;;15.70;9.70;;;8.70;59.70;;;;;;5074400;27;20450;-87
2023/03/08 11:13:40;;;;;;;15.80;9.27;;;8.60;59.20;;;;;;5099174;27;21228;-85
2023/03/08 11:16:37;;;;;;;19.00;10.30;;;8.60;59.50;;;;;;5085077;27;20503;-85
2023/03/08 11:19:14;;;;;;;18.10;10.37;;;8.40;60.00;;;;;;5059776;27;20461;-86
2023/03/08 11:21:50;;;;;;;18.93;12.20;;;8.70;60.10;;;;;;5093855;27;20450;-85
2023/03/08 11:24:30;;;;;;;14.50;7.50;;;8.50;59.20;;;;;;5091856;27;20439;-86
2023/03/08 11:27:12;;;;;;;11.67;7.27;;;8.40;59.60;;;;;;5068617;27;20446;-85
2023/03/08 11:29:51;;;;;;;12.43;8.40;;;8.30;60.60;;;;;;5075818;27;20699;-86
2023/03/08 11:32:34;;;;;;;22.37;11.93;;;8.50;60.40;;;;;;5075640;27;20468;-85
2023/03/08 11:35:11;;;;;;;18.87;11.00;;;8.90;60.10;;;;;;5080649;27;20827;-85
2023/03/08 11:37:44;;;;;;;19.47;11.30;;;8.90;58.70;;;;;;5078527;27;20434;-86
2023/03/08 11:40:47;;;;;;;20.33;11.70;;;8.80;58.90;;;;;;5076251;27;20443;-86
2023/03/08 11:43:27;;;;;;;20.07;9.97;;;8.90;58.90;;;;;;5058919;28;20469;-85
2023/03/08 11:46:00;;;;;;;20.30;9.60;;;9.10;58.90;;;;;;5064535;27;20458;-86
2023/03/08 11:48:59;;;;;;;23.83;10.30;;;8.90;58.70;;;;;;5072540;27;20498;-87
2023/03/08 11:51:34;;;;;;;20.60;11.00;;;8.80;59.70;;;;;;5086977;27;20856;-87
2023/03/08 11:54:12;;;;;;;17.83;10.90;;;8.70;59.70;;;;;;5080678;27;20495;-87
2023/03/08 11:56:54;;;;;;;23.13;15.30;;;8.80;60.20;;;;;;5086873;28;20469;-87
2023/03/08 11:59:27;;;;;;;18.63;11.53;;;8.90;60.50;;;;;;5087447;27;20461;-87
2023/03/08 12:01:59;;;;;;;15.40;9.73;;;8.70;59.00;;;;;;5094700;27;20878;-86
2023/03/08 12:04:35;;;;;;;19.40;10.47;;;8.60;60.70;;;;;;5069254;27;20453;-87
2023/03/08 12:07:07;;;;;;;18.23;9.47;;;8.60;60.90;;;;;;5072953;28;20431;-87
2023/03/08 12:09:38;;;;;;;17.90;10.07;;;8.60;61.00;;;;;;5087265;28;20519;-86
2023/03/08 12:12:11;;;;;;;23.33;9.63;;;8.60;61.30;;;;;;5055660;28;20471;-87
2023/03/08 12:14:50;;;;;;;20.80;9.77;;;8.70;61.30;;;;;;5087818;28;21142;-87
2023/03/08 12:17:20;;;;;;;19.80;9.70;;;8.80;61.20;;;;;;5070357;28;20465;-87
2023/03/08 12:19:50;;;;;;;16.63;9.60;;;9.00;60.50;;;;;;5071823;28;20882;-87
2023/03/08 12:22:43;;;;;;;17.00;9.03;;;9.00;60.70;;;;;;5078812;28;20469;-87
2023/03/08 12:25:17;;;;;;;22.20;11.80;;;8.70;60.80;;;;;;5107053;28;20773;-87
2023/03/08 12:27:47;;;;;;;18.67;10.60;;;8.80;61.20;;;;;;5087296;28;20443;-87
2023/03/08 12:30:26;;;;;;;19.77;10.53;;;9.10;60.60;;;;;;5080400;28;20445;-87
2023/03/08 12:32:55;;;;;;;17.30;10.60;;;9.00;60.00;;;;;;5096213;28;20474;-87
2023/03/08 12:35:29;;;;;;;20.10;11.67;;;8.90;61.00;;;;;;5070689;28;20450;-85
2023/03/08 12:37:58;;;;;;;25.80;13.60;;;9.10;60.60;;;;;;5073223;28;20452;-87
2023/03/08 12:40:46;;;;;;;20.60;12.33;;;9.10;60.20;;;;;;5088675;28;20458;-87
2023/03/08 12:43:27;;;;;;;21.70;12.27;;;9.30;60.00;;;;;;5066539;28;20466;-88
2023/03/08 12:46:02;;;;;;;25.93;16.17;;;9.40;59.70;;;;;;5074295;28;20501;-87
2023/03/08 12:48:31;;;;;;;21.33;12.03;;;9.30;59.60;;;;;;5087646;28;20954;-85
2023/03/08 12:51:04;;;;;;;18.10;10.20;;;9.30;59.70;;;;;;5091571;28;20512;-87
2023/03/08 12:53:38;;;;;;;20.90;11.87;;;9.00;59.90;;;;;;5095688;28;20462;-86
2023/03/08 12:56:17;;;;;;;24.37;13.83;;;8.90;61.10;;;;;;5108832;28;20481;-87
2023/03/08 12:58:50;;;;;;;19.60;11.87;;;9.00;61.00;;;;;;5082517;28;20725;-87